Time;durP1;ratioP1;P1;durP2;ratioP2;P2;SDS_P1;SDS_P2;PMS_P1;PMS_P2;Temp;Humidity;BMP_temperature;BMP_pressure;BME280_temperature;BME280_humidity;BME280_pressure;Samples;Min_cycle;Max_cycle;Signal;HPM_P1;HPM_P2
2023/11/03 00:03:49;;;;;;;11.10;1.33;;;10.30;99.90;;;;;;10486989;28;20074;-27
2023/11/03 00:08:51;;;;;;;9.50;1.48;;;10.30;99.90;;;;;;10485870;28;20133;-38
2023/11/03 00:13:55;;;;;;;5.88;1.10;;;10.70;99.90;;;;;;10489828;28;20048;-31
2023/11/03 00:18:59;;;;;;;;;;;11.60;99.90;;;;;;10494442;28;20052;-35
2023/11/03 00:24:01;;;;;;;20.48;2.28;;;11.60;99.90;;;;;;10486599;28;20680;-33
2023/11/03 00:29:07;;;;;;;17.00;1.98;;;11.40;99.90;;;;;;10494110;28;20465;-35
2023/11/03 00:34:09;;;;;;;14.35;2.30;;;11.20;99.90;;;;;;10499451;28;20041;-32
2023/11/03 00:39:12;;;;;;;14.80;1.77;;;11.60;99.90;;;;;;10499611;28;20599;-36
2023/11/03 00:44:17;;;;;;;13.48;2.00;;;11.00;99.90;;;;;;10504624;28;20052;-30
2023/11/03 00:49:19;;;;;;;12.20;2.28;;;11.30;99.90;;;;;;10501172;28;20037;-37
2023/11/03 00:54:22;;;;;;;14.60;1.90;;;11.40;99.90;;;;;;10504469;28;20044;-33
2023/11/03 00:59:25;;;;;;;19.55;2.10;;;10.90;99.90;;;;;;10493176;28;20051;-33
2023/11/03 01:04:27;;;;;;;14.48;1.85;;;10.60;99.90;;;;;;10504403;28;20044;-30
2023/11/03 01:09:29;;;;;;;8.15;1.42;;;10.60;99.90;;;;;;10499804;28;20447;-35
2023/11/03 01:14:32;;;;;;;8.03;1.30;;;11.20;99.90;;;;;;10492570;28;20121;-42
2023/11/03 01:19:34;;;;;;;11.70;1.95;;;11.30;99.90;;;;;;10506419;28;20055;-33
2023/11/03 01:24:38;;;;;;;17.95;2.22;;;10.90;99.90;;;;;;10495884;28;20044;-33
2023/11/03 01:29:41;;;;;;;17.17;3.03;;;11.30;99.90;;;;;;10499028;28;20041;-33
2023/11/03 01:34:43;;;;;;;;;;;11.10;99.90;;;;;;10505258;28;20122;-31
2023/11/03 01:39:44;;;;;;;11.73;1.55;;;11.60;99.90;;;;;;10495339;28;20376;-36
2023/11/03 01:44:48;;;;;;;17.92;2.45;;;11.50;99.90;;;;;;10499904;28;20086;-38
2023/11/03 01:49:50;;;;;;;16.33;2.08;;;11.00;99.90;;;;;;10501229;28;20039;-33
2023/11/03 01:54:52;;;;;;;18.75;3.10;;;11.30;99.90;;;;;;10497294;28;20181;-39
2023/11/03 01:59:56;;;;;;;16.13;3.47;;;10.80;99.90;;;;;;10494599;28;20066;-38
2023/11/03 02:04:58;;;;;;;16.15;3.15;;;11.20;99.90;;;;;;10496498;28;20474;-39
2023/11/03 02:10:00;;;;;;;26.90;2.92;;;11.00;99.90;;;;;;10500972;28;20079;-34
2023/11/03 02:15:05;;;;;;;28.80;2.97;;;11.20;99.90;;;;;;10494238;28;20040;-36
2023/11/03 02:20:08;;;;;;;16.50;2.70;;;11.10;99.90;;;;;;10498426;28;20044;-36
2023/11/03 02:25:11;;;;;;;22.85;2.80;;;11.30;99.90;;;;;;10494293;28;20044;-36
2023/11/03 02:30:14;;;;;;;26.42;2.22;;;11.00;99.90;;;;;;10488267;28;20061;-31
2023/11/03 02:35:16;;;;;;;8.77;2.03;;;11.20;99.90;;;;;;10501239;28;20032;-30
2023/11/03 02:40:19;;;;;;;14.32;2.05;;;11.20;99.90;;;;;;10497126;28;20097;-41
2023/11/03 02:45:20;;;;;;;13.10;2.20;;;11.30;99.90;;;;;;10497493;28;20493;-33
2023/11/03 02:50:22;;;;;;;32.05;4.05;;;11.50;99.90;;;;;;10499476;28;20068;-35
2023/11/03 02:55:25;;;;;;;23.42;2.40;;;11.20;99.90;;;;;;10490578;28;20117;-43
2023/11/03 03:00:28;;;;;;;11.77;1.85;;;11.00;99.90;;;;;;10493809;28;20131;-31
2023/11/03 03:05:30;;;;;;;19.08;2.33;;;11.30;99.90;;;;;;10496273;28;20135;-31
2023/11/03 03:10:33;;;;;;;14.35;2.30;;;11.10;99.90;;;;;;10496886;28;20435;-33
2023/11/03 03:15:35;;;;;;;13.20;2.67;;;11.60;99.90;;;;;;10493423;28;20269;-32
2023/11/03 03:20:37;;;;;;;12.60;2.33;;;11.60;99.90;;;;;;10499280;28;20561;-31
2023/11/03 03:25:40;;;;;;;26.73;3.42;;;11.70;99.90;;;;;;10493005;28;20482;-35
2023/11/03 03:30:42;;;;;;;15.32;1.88;;;11.50;99.90;;;;;;10493220;28;20516;-32
2023/11/03 03:35:44;;;;;;;16.83;3.27;;;11.30;99.90;;;;;;10490660;28;20073;-31
2023/11/03 03:40:47;;;;;;;18.98;3.05;;;11.50;99.90;;;;;;10506173;28;20698;-37
2023/11/03 03:45:49;;;;;;;26.48;2.85;;;11.40;99.90;;;;;;10495921;28;20131;-34
2023/11/03 03:50:51;;;;;;;31.38;4.93;;;11.20;99.90;;;;;;10497931;28;20044;-32
2023/11/03 03:55:54;;;;;;;26.15;3.08;;;11.50;99.90;;;;;;10490802;28;20088;-31
2023/11/03 04:15:30;;;;;;;22.55;3.13;;;11.20;99.90;;;;;;10554815;27;20441;-32
2023/11/03 04:20:31;;;;;;;27.65;3.47;;;11.40;99.90;;;;;;10573503;27;20179;-30
2023/11/03 04:25:33;;;;;;;30.42;3.40;;;11.30;99.90;;;;;;10580783;27;20043;-35
2023/11/03 04:30:37;;;;;;;18.27;2.95;;;11.30;99.90;;;;;;10571065;27;20101;-31
2023/11/03 04:35:39;;;;;;;32.80;5.82;;;11.10;99.90;;;;;;10577611;27;20476;-30
2023/11/03 04:40:40;;;;;;;19.80;3.38;;;11.20;99.90;;;;;;10569514;28;20068;-33
2023/11/03 04:45:44;;;;;;;34.25;4.25;;;11.20;99.90;;;;;;10574737;27;20052;-46
2023/11/03 04:50:47;;;;;;;21.63;2.25;;;11.10;99.90;;;;;;10567907;28;20807;-31
2023/11/03 04:55:49;;;;;;;18.75;2.70;;;11.00;99.90;;;;;;10579411;27;22078;-30
2023/11/03 05:00:52;;;;;;;23.25;3.70;;;10.90;99.90;;;;;;10578927;28;20507;-34
2023/11/03 05:05:54;;;;;;;;;;;11.20;99.90;;;;;;10577053;27;20059;-29
2023/11/03 05:10:55;;;;;;;26.05;2.92;;;10.90;99.90;;;;;;10567234;28;19959;-42
2023/11/03 05:15:58;;;;;;;13.88;2.95;;;10.90;99.90;;;;;;10563946;28;20122;-35
2023/11/03 05:21:01;;;;;;;;;;;11.10;99.90;;;;;;10569120;28;20610;-39
2023/11/03 05:26:03;;;;;;;21.70;3.33;;;11.10;99.90;;;;;;10549388;28;20347;-38
2023/11/03 05:31:06;;;;;;;13.95;2.10;;;11.30;99.90;;;;;;10545038;28;20060;-34
2023/11/03 05:36:11;;;;;;;25.08;2.92;;;11.20;99.90;;;;;;10546030;28;20043;-30
2023/11/03 05:41:13;;;;;;;30.38;3.33;;;11.30;99.90;;;;;;10544037;28;20039;-38
2023/11/03 05:46:16;;;;;;;39.05;3.10;;;11.10;99.90;;;;;;10540663;28;20046;-37
2023/11/03 05:51:21;;;;;;;28.00;4.82;;;11.30;99.90;;;;;;10521921;28;20508;-32
2023/11/03 05:56:22;;;;;;;23.25;2.97;;;11.00;99.90;;;;;;10532449;28;20095;-36
2023/11/03 06:01:25;;;;;;;25.13;3.92;;;10.90;99.90;;;;;;10539331;28;20051;-30
2023/11/03 06:06:27;;;;;;;;;;;11.00;99.90;;;;;;10530614;28;20035;-36
2023/11/03 06:11:29;;;;;;;24.50;3.15;;;11.20;99.90;;;;;;10539237;28;19920;-29
2023/11/03 06:16:34;;;;;;;15.60;2.70;;;11.40;99.90;;;;;;10537945;28;20075;-43
2023/11/03 06:21:36;;;;;;;21.67;2.38;;;10.70;99.90;;;;;;10535522;28;20453;-38
2023/11/03 06:26:38;;;;;;;17.95;3.13;;;11.00;99.90;;;;;;10538492;28;20046;-36
2023/11/03 06:31:41;;;;;;;24.55;4.68;;;11.20;99.90;;;;;;10538672;28;20124;-31
2023/11/03 06:36:42;;;;;;;;;;;11.10;99.90;;;;;;10538152;28;20138;-34
2023/11/03 06:41:44;;;;;;;19.17;2.80;;;11.40;99.90;;;;;;10536112;28;19916;-30
2023/11/03 06:46:47;;;;;;;17.63;2.22;;;11.30;99.90;;;;;;10529439;28;20773;-36
2023/11/03 06:51:49;;;;;;;13.07;2.47;;;11.30;99.90;;;;;;10533439;28;20081;-28
2023/11/03 06:56:51;;;;;;;29.58;3.08;;;11.40;99.90;;;;;;10539961;28;20150;-33
2023/11/03 07:01:54;;;;;;;12.27;2.00;;;11.50;99.90;;;;;;10535954;28;20048;-41
2023/11/03 07:06:56;;;;;;;27.17;3.33;;;11.60;99.90;;;;;;10535191;28;20047;-34
2023/11/03 07:11:59;;;;;;;9.05;2.15;;;11.80;99.90;;;;;;10540081;28;20158;-35
2023/11/03 07:17:03;;;;;;;22.20;3.30;;;12.10;99.90;;;;;;10535207;28;20036;-31
2023/11/03 07:22:05;;;;;;;14.65;2.17;;;11.40;99.90;;;;;;10536772;28;20071;-31
2023/11/03 07:27:07;;;;;;;18.85;2.40;;;11.90;99.90;;;;;;10541377;28;20045;-31
2023/11/03 07:32:10;;;;;;;18.27;2.97;;;11.50;99.90;;;;;;10540775;28;20628;-30
2023/11/03 07:37:12;;;;;;;19.27;2.03;;;11.70;99.90;;;;;;10542087;28;20050;-34
2023/11/03 07:42:13;;;;;;;27.67;3.30;;;11.60;99.90;;;;;;10543476;28;20048;-30
2023/11/03 07:47:17;;;;;;;12.45;2.60;;;11.50;99.90;;;;;;10532359;28;20143;-35
2023/11/03 07:52:18;;;;;;;;;;;11.50;99.90;;;;;;10542506;28;20139;-38
2023/11/03 07:57:20;;;;;;;22.85;2.53;;;11.60;99.90;;;;;;10528638;28;19916;-37
2023/11/03 08:02:23;;;;;;;19.38;3.10;;;11.60;99.90;;;;;;10538934;28;20130;-31
2023/11/03 08:07:25;;;;;;;15.00;2.22;;;11.80;99.90;;;;;;10536720;28;20050;-31
2023/11/03 08:12:27;;;;;;;16.48;2.95;;;11.80;99.90;;;;;;10534286;28;20075;-36
2023/11/03 08:17:30;;;;;;;15.38;2.25;;;11.70;99.90;;;;;;10536552;28;20036;-35
2023/11/03 08:22:32;;;;;;;23.30;2.53;;;11.60;99.90;;;;;;10530416;28;20738;-32
2023/11/03 08:27:33;;;;;;;23.08;3.20;;;11.60;99.90;;;;;;10534350;28;20480;-33
2023/11/03 08:32:37;;;;;;;24.73;2.40;;;11.70;99.90;;;;;;10532027;28;20120;-42
2023/11/03 08:37:40;;;;;;;17.25;2.17;;;11.90;99.90;;;;;;10535718;28;20115;-31
2023/11/03 08:42:44;;;;;;;16.92;2.65;;;12.30;99.90;;;;;;10541480;28;20117;-35
2023/11/03 08:47:47;;;;;;;28.50;4.32;;;11.80;99.90;;;;;;10531908;28;20070;-31
2023/11/03 08:52:49;;;;;;;19.50;2.53;;;12.20;99.90;;;;;;10539940;28;20043;-40
2023/11/03 08:57:50;;;;;;;13.88;1.42;;;12.20;99.90;;;;;;10529611;28;20134;-38
2023/11/03 09:02:55;;;;;;;16.65;1.83;;;11.80;99.90;;;;;;10547463;28;20047;-39
2023/11/03 09:07:56;;;;;;;22.48;2.67;;;12.30;99.90;;;;;;10537767;28;20079;-33
2023/11/03 09:12:59;;;;;;;17.50;2.45;;;12.10;99.90;;;;;;10542739;28;20119;-39
2023/11/03 09:18:04;;;;;;;19.02;1.75;;;11.90;99.90;;;;;;10544019;28;20043;-36
2023/11/03 09:23:06;;;;;;;13.00;1.67;;;12.30;99.90;;;;;;10542345;28;20472;-30
2023/11/03 09:28:08;;;;;;;20.52;2.25;;;12.00;99.90;;;;;;10539831;28;20046;-35
2023/11/03 09:33:11;;;;;;;17.55;2.88;;;12.10;99.90;;;;;;10541710;28;20044;-36
2023/11/03 09:38:18;;;;;;;18.00;2.17;;;12.00;99.90;;;;;;10541222;27;20048;-39
2023/11/03 09:43:21;;;;;;;14.15;2.22;;;12.20;99.90;;;;;;10545575;28;20083;-30
2023/11/03 09:48:26;;;;;;;10.27;1.67;;;12.50;99.90;;;;;;10535169;28;20524;-45
2023/11/03 09:53:30;;;;;;;9.32;1.45;;;13.30;99.90;;;;;;10539195;28;20146;-35
2023/11/03 09:58:34;;;;;;;24.95;1.70;;;13.00;99.90;;;;;;10535494;28;20060;-39
2023/11/03 10:03:38;;;;;;;11.50;2.70;;;12.50;99.90;;;;;;10538933;28;20071;-37
2023/11/03 10:08:42;;;;;;;18.65;2.33;;;12.30;99.90;;;;;;10535854;28;20035;-33
2023/11/03 10:13:44;;;;;;;14.68;3.03;;;12.60;99.90;;;;;;10530545;28;20060;-31
2023/11/03 10:18:48;;;;;;;17.42;3.70;;;11.80;99.90;;;;;;10544114;28;20092;-32
2023/11/03 10:23:50;;;;;;;21.60;3.17;;;12.20;99.90;;;;;;10538815;28;20044;-29
2023/11/03 10:28:52;;;;;;;12.15;1.88;;;11.90;99.90;;;;;;10528261;28;20117;-33
2023/11/03 10:33:58;;;;;;;11.57;2.50;;;11.90;99.90;;;;;;10538895;28;20146;-35
2023/11/03 10:39:00;;;;;;;21.33;2.58;;;11.80;99.90;;;;;;10540346;28;20127;-39
2023/11/03 10:44:06;;;;;;;11.98;2.72;;;11.70;99.90;;;;;;10538260;28;20061;-30
2023/11/03 10:49:16;;;;;;;4.70;1.83;;;12.50;99.90;;;;;;10535408;28;20499;-35
2023/11/03 10:54:37;;;;;;;22.83;2.83;;;13.40;99.90;;;;;;10541491;28;20389;-35
2023/11/03 10:59:41;;;;;;;11.60;1.85;;;12.80;99.90;;;;;;10529001;28;20070;-36
2023/11/03 11:04:55;;;;;;;12.45;2.10;;;13.20;99.90;;;;;;10537919;28;20158;-35
2023/11/03 11:09:58;;;;;;;15.70;2.72;;;12.80;99.90;;;;;;10539423;28;20044;-36
2023/11/03 11:15:04;;;;;;;;;;;12.80;99.90;;;;;;10528157;28;20374;-36
2023/11/03 11:20:15;;;;;;;11.13;1.58;;;12.30;99.90;;;;;;10536334;28;20360;-34
2023/11/03 11:25:17;;;;;;;24.05;2.97;;;12.60;99.90;;;;;;10539678;28;20051;-31
2023/11/03 11:30:19;;;;;;;19.03;2.57;;;12.70;99.90;;;;;;10538551;28;20066;-32
2023/11/03 11:35:25;;;;;;;10.75;2.08;;;12.90;99.90;;;;;;10542109;28;20380;-34
2023/11/03 11:40:27;;;;;;;13.23;1.60;;;13.30;99.90;;;;;;10533800;28;20070;-30
2023/11/03 11:45:30;;;;;;;18.30;2.15;;;13.20;99.90;;;;;;10534578;28;20105;-36
2023/11/03 11:50:33;;;;;;;14.20;1.75;;;13.40;99.90;;;;;;10534531;28;20146;-30
2023/11/03 11:55:35;;;;;;;9.32;2.17;;;13.60;99.90;;;;;;10538288;28;20120;-32
2023/11/03 12:00:39;;;;;;;16.10;2.33;;;14.00;99.90;;;;;;10530587;28;20472;-28
2023/11/03 12:05:42;;;;;;;8.48;1.63;;;13.70;99.90;;;;;;10534550;28;20044;-49
2023/11/03 12:10:49;;;;;;;11.85;1.65;;;13.60;99.90;;;;;;10533527;28;20128;-37
2023/11/03 12:15:50;;;;;;;12.35;2.38;;;13.80;99.90;;;;;;10533109;28;20052;-30
2023/11/03 12:21:04;;;;;;;12.63;2.15;;;12.90;99.90;;;;;;10534439;28;20353;-38
2023/11/03 12:26:07;;;;;;;;;;;13.30;99.90;;;;;;10534555;28;20126;-30
2023/11/03 12:31:09;;;;;;;6.38;1.38;;;13.40;99.90;;;;;;10532767;28;19920;-32
2023/11/03 12:36:14;;;;;;;8.50;1.75;;;13.70;99.90;;;;;;10544323;28;20484;-38
2023/11/03 12:41:17;;;;;;;5.53;1.35;;;13.80;99.90;;;;;;10540613;28;20073;-39
2023/11/03 12:46:20;;;;;;;8.98;1.77;;;13.10;99.90;;;;;;10541695;27;20130;-37
2023/11/03 12:51:32;;;;;;;9.63;2.00;;;12.90;99.90;;;;;;10549615;28;20039;-31
2023/11/03 12:56:45;;;;;;;9.53;1.20;;;12.80;99.90;;;;;;10541386;28;20039;-35
2023/11/03 13:01:47;;;;;;;15.25;1.85;;;13.20;99.90;;;;;;10538675;28;20485;-30
2023/11/03 13:06:57;;;;;;;13.63;2.20;;;12.30;99.90;;;;;;10532982;28;20084;-32
2023/11/03 13:11:58;;;;;;;10.20;2.25;;;12.90;99.90;;;;;;10529278;28;20186;-31
2023/11/03 13:17:01;;;;;;;6.15;1.13;;;12.70;99.90;;;;;;10527222;28;20047;-40
2023/11/03 13:22:05;;;;;;;24.03;2.10;;;13.20;99.90;;;;;;10537759;28;20451;-35
2023/11/03 13:27:06;;;;;;;7.60;1.45;;;12.50;99.90;;;;;;10531755;28;20044;-31
2023/11/03 13:32:11;;;;;;;11.07;2.05;;;12.60;99.90;;;;;;10535134;28;20108;-35
2023/11/03 13:37:15;;;;;;;10.88;1.92;;;12.50;99.90;;;;;;10536502;28;20039;-36
2023/11/03 13:42:19;;;;;;;6.82;1.20;;;12.70;99.90;;;;;;10537571;28;20415;-39
2023/11/03 13:47:20;;;;;;;7.55;1.67;;;12.90;99.90;;;;;;10528471;28;20044;-43
2023/11/03 13:52:24;;;;;;;14.13;1.80;;;13.40;99.90;;;;;;10539752;28;20640;-42
2023/11/03 13:57:25;;;;;;;4.88;0.80;;;12.90;99.90;;;;;;10538989;28;20063;-34
2023/11/03 14:02:28;;;;;;;3.47;1.10;;;13.30;99.90;;;;;;10541904;28;20055;-34
2023/11/03 14:07:31;;;;;;;6.30;1.05;;;13.50;99.90;;;;;;10533638;28;20043;-33
2023/11/03 14:12:33;;;;;;;3.42;0.80;;;13.10;99.90;;;;;;10538432;28;20484;-37
2023/11/03 14:17:35;;;;;;;8.32;1.20;;;13.60;99.90;;;;;;10537625;28;20044;-37
2023/11/03 14:22:41;;;;;;;2.42;0.98;;;12.90;99.90;;;;;;10536942;28;20927;-30
2023/11/03 14:27:43;;;;;;;6.05;0.85;;;12.70;99.90;;;;;;10537682;28;20411;-35
2023/11/03 14:32:44;;;;;;;5.95;1.10;;;12.90;99.90;;;;;;10539310;28;20508;-43
2023/11/03 14:37:48;;;;;;;5.18;0.73;;;12.70;99.90;;;;;;10540845;27;20134;-32
2023/11/03 14:42:49;;;;;;;8.65;1.60;;;12.70;99.90;;;;;;10536929;28;20051;-32
2023/11/03 14:47:52;;;;;;;4.03;1.05;;;12.20;99.90;;;;;;10534742;28;20070;-32
2023/11/03 14:52:55;;;;;;;6.17;1.10;;;12.90;99.90;;;;;;10530892;28;20032;-38
2023/11/03 14:57:59;;;;;;;3.83;1.17;;;13.10;99.90;;;;;;10533698;28;20048;-41
2023/11/03 15:03:00;;;;;;;9.20;1.88;;;12.90;99.90;;;;;;10537608;28;20662;-48
2023/11/03 15:08:04;;;;;;;7.68;1.25;;;12.80;99.90;;;;;;10527180;28;20040;-39
2023/11/03 15:13:06;;;;;;;6.88;0.90;;;12.10;99.90;;;;;;10531105;28;20166;-31
2023/11/03 15:18:08;;;;;;;5.53;0.70;;;12.70;99.90;;;;;;10528767;28;20067;-33
2023/11/03 15:23:11;;;;;;;5.45;0.93;;;12.70;99.90;;;;;;10534653;28;20051;-34
2023/11/03 15:28:14;;;;;;;4.15;0.93;;;13.70;99.90;;;;;;10526393;28;20711;-34
2023/11/03 15:33:16;;;;;;;;;;;13.20;99.90;;;;;;10529916;28;20052;-37
2023/11/03 15:38:19;;;;;;;6.95;1.73;;;12.50;99.90;;;;;;10540870;28;20006;-34
2023/11/03 15:43:21;;;;;;;5.97;0.85;;;12.40;99.90;;;;;;10533928;28;20036;-37
2023/11/03 15:48:23;;;;;;;3.92;0.88;;;12.20;99.90;;;;;;10529938;28;20208;-44
2023/11/03 15:53:27;;;;;;;3.28;1.05;;;12.20;99.90;;;;;;10525395;28;20150;-33
2023/11/03 15:58:29;;;;;;;4.50;0.80;;;12.20;99.90;;;;;;10537426;28;20039;-42
2023/11/03 16:03:32;;;;;;;2.60;0.90;;;11.90;99.90;;;;;;10531836;28;20056;-34
2023/11/03 16:08:38;;;;;;;5.45;0.75;;;12.10;99.90;;;;;;10535207;28;20577;-33
2023/11/03 16:13:39;;;;;;;3.85;0.65;;;12.50;99.90;;;;;;10527349;28;20089;-33
2023/11/03 16:18:41;;;;;;;3.42;0.60;;;11.70;99.90;;;;;;10532576;28;20170;-40
2023/11/03 16:23:45;;;;;;;2.85;0.50;;;12.30;99.90;;;;;;10537560;28;20495;-32
2023/11/03 16:28:46;;;;;;;2.70;0.70;;;12.80;99.90;;;;;;10536932;28;20044;-38
2023/11/03 16:33:48;;;;;;;5.28;1.65;;;12.40;99.90;;;;;;10533207;28;20035;-41
2023/11/03 16:38:53;;;;;;;2.78;0.75;;;12.40;99.90;;;;;;10532173;28;20051;-39
2023/11/03 16:43:54;;;;;;;3.63;0.77;;;13.30;99.90;;;;;;10530882;28;20047;-36
2023/11/03 16:48:56;;;;;;;1.77;0.63;;;12.20;99.90;;;;;;10541050;28;20079;-43
2023/11/03 16:53:59;;;;;;;3.63;0.80;;;12.60;99.90;;;;;;10537621;28;20047;-35
2023/11/03 16:59:03;;;;;;;0.90;0.70;;;12.30;99.90;;;;;;10535148;28;20120;-42
2023/11/03 17:04:06;;;;;;;3.42;0.80;;;12.30;99.90;;;;;;10534477;28;20040;-43
2023/11/03 17:09:09;;;;;;;;;;;12.60;99.90;;;;;;10539665;28;20042;-37
2023/11/03 17:14:11;;;;;;;3.22;1.30;;;12.10;99.90;;;;;;10535285;28;19932;-42
2023/11/03 17:19:12;;;;;;;3.83;0.93;;;12.20;99.90;;;;;;10538241;28;20535;-38
2023/11/03 17:24:16;;;;;;;2.22;0.60;;;13.40;99.90;;;;;;10548781;28;20130;-32
2023/11/03 17:29:18;;;;;;;4.35;0.70;;;11.90;99.90;;;;;;10547769;28;20447;-35
2023/11/03 17:34:20;;;;;;;5.07;0.97;;;11.30;99.90;;;;;;10536035;28;20121;-31
2023/11/03 17:39:27;;;;;;;2.17;0.80;;;11.30;99.90;;;;;;10542974;28;20047;-46
2023/11/03 17:44:29;;;;;;;8.65;0.88;;;11.90;99.90;;;;;;10540698;28;20259;-38
2023/11/03 17:49:31;;;;;;;5.07;0.85;;;11.70;99.90;;;;;;10542229;28;20055;-40
2023/11/03 17:54:34;;;;;;;1.00;0.43;;;11.40;99.90;;;;;;10536455;28;20054;-40
2023/11/03 17:59:36;;;;;;;7.72;1.88;;;13.30;99.90;;;;;;10541236;28;20044;-47
2023/11/03 18:04:38;;;;;;;7.20;1.60;;;12.20;99.90;;;;;;10543019;28;20047;-39
2023/11/03 18:09:41;;;;;;;4.57;1.15;;;12.90;99.90;;;;;;10535494;28;20485;-40
2023/11/03 18:14:43;;;;;;;4.05;1.02;;;12.20;99.90;;;;;;10539744;28;20751;-35
2023/11/03 18:19:45;;;;;;;6.28;1.67;;;12.10;99.90;;;;;;10536704;28;20063;-32
2023/11/03 18:24:48;;;;;;;2.27;0.97;;;13.00;99.90;;;;;;10540707;28;20401;-29
2023/11/03 18:29:50;;;;;;;8.45;1.00;;;11.90;99.90;;;;;;10540454;28;20148;-33
2023/11/03 18:34:52;;;;;;;3.70;1.00;;;11.30;99.90;;;;;;10538516;28;20036;-31
2023/11/03 18:39:55;;;;;;;6.65;1.80;;;11.20;99.90;;;;;;10539573;28;20043;-34
2023/11/03 18:44:57;;;;;;;9.00;1.45;;;11.50;99.90;;;;;;10532775;28;20048;-36
2023/11/03 18:50:00;;;;;;;7.05;2.28;;;11.40;99.90;;;;;;10534261;28;20416;-32
2023/11/03 18:55:03;;;;;;;2.95;1.27;;;12.10;99.90;;;;;;10538112;28;20035;-36
2023/11/03 19:00:07;;;;;;;5.10;0.80;;;11.70;99.90;;;;;;10539149;28;20074;-32
2023/11/03 19:05:09;;;;;;;1.98;0.93;;;11.60;99.90;;;;;;10542062;28;20055;-31
2023/11/03 19:10:12;;;;;;;2.50;1.37;;;12.30;99.90;;;;;;10528935;28;20122;-40
2023/11/03 19:15:19;;;;;;;3.72;1.35;;;13.00;99.90;;;;;;10537698;28;20903;-35
2023/11/03 19:20:20;;;;;;;2.05;0.77;;;13.20;99.90;;;;;;10536692;28;20043;-32
2023/11/03 19:25:23;;;;;;;7.07;1.00;;;12.30;99.90;;;;;;10535130;28;20093;-32
2023/11/03 19:30:25;;;;;;;3.65;1.10;;;11.70;99.90;;;;;;10538160;28;20051;-33
2023/11/03 19:35:29;;;;;;;3.50;0.85;;;12.40;99.90;;;;;;10538915;28;20104;-40
2023/11/03 19:40:34;;;;;;;2.28;1.08;;;12.40;99.90;;;;;;10541082;28;20052;-36
2023/11/03 19:45:38;;;;;;;3.85;1.15;;;13.00;99.90;;;;;;10532098;28;20473;-36
2023/11/03 19:50:40;;;;;;;3.83;1.30;;;12.60;99.90;;;;;;10538185;28;20039;-42
2023/11/03 19:55:44;;;;;;;4.13;1.67;;;12.00;99.90;;;;;;10536726;28;20071;-38
2023/11/03 20:00:47;;;;;;;3.35;1.33;;;12.20;99.90;;;;;;10534244;28;20055;-42
2023/11/03 20:05:49;;;;;;;3.30;0.98;;;13.50;99.90;;;;;;10537859;28;20040;-29
2023/11/03 20:10:55;;;;;;;2.13;0.97;;;11.90;99.90;;;;;;10541115;28;20055;-37
2023/11/03 20:15:57;;;;;;;2.05;0.90;;;12.00;99.90;;;;;;10528579;28;20044;-40
2023/11/03 20:20:59;;;;;;;3.03;1.08;;;12.90;99.90;;;;;;10528903;28;20047;-36
2023/11/03 20:26:02;;;;;;;3.40;1.20;;;13.90;99.90;;;;;;10536036;28;20055;-38
2023/11/03 20:31:05;;;;;;;6.05;1.67;;;11.70;99.90;;;;;;10535252;28;20089;-37
2023/11/03 20:36:08;;;;;;;3.38;1.10;;;13.80;98.50;;;;;;10538530;28;20480;-35
2023/11/03 20:41:11;;;;;;;;;;;13.70;99.90;;;;;;10529233;28;20036;-36
2023/11/03 20:46:12;;;;;;;2.15;1.00;;;12.90;99.90;;;;;;10527643;28;19935;-35
2023/11/03 20:51:17;;;;;;;2.35;0.93;;;13.70;99.90;;;;;;10534411;28;20036;-32
2023/11/03 20:56:21;;;;;;;3.40;1.63;;;13.80;99.90;;;;;;10541121;28;20055;-40
2023/11/03 21:01:25;;;;;;;2.47;1.48;;;13.80;99.90;;;;;;10544364;28;20126;-40
2023/11/03 21:06:27;;;;;;;2.67;1.38;;;15.00;99.90;;;;;;10546048;28;20498;-45
2023/11/03 21:11:31;;;;;;;4.47;1.60;;;15.00;97.10;;;;;;10544686;28;20047;-40
2023/11/03 21:16:33;;;;;;;7.50;1.67;;;14.50;95.80;;;;;;10538692;28;20058;-33
2023/11/03 21:21:38;;;;;;;6.40;2.00;;;14.00;99.90;;;;;;10543109;28;20067;-39
2023/11/03 21:26:44;;;;;;;4.50;1.55;;;14.40;99.90;;;;;;10539638;28;20039;-42
2023/11/03 21:31:47;;;;;;;4.65;1.83;;;13.70;97.90;;;;;;10540497;28;20039;-32
2023/11/03 21:36:49;;;;;;;9.48;1.30;;;13.60;99.90;;;;;;10538340;28;20423;-31
2023/11/03 21:41:52;;;;;;;6.05;1.90;;;14.00;99.90;;;;;;10541697;28;20055;-34
2023/11/03 21:46:54;;;;;;;5.22;2.60;;;14.10;99.90;;;;;;10541507;28;20089;-31
2023/11/03 21:51:55;;;;;;;5.82;2.60;;;14.10;99.90;;;;;;10536446;28;20050;-42
2023/11/03 21:56:59;;;;;;;5.93;1.35;;;14.60;99.90;;;;;;10541739;28;20159;-35
2023/11/03 22:02:01;;;;;;;5.47;2.80;;;13.10;99.10;;;;;;10538877;28;20056;-40
2023/11/03 22:07:04;;;;;;;4.63;1.58;;;12.80;99.90;;;;;;10529771;28;20181;-42
2023/11/03 22:12:08;;;;;;;3.65;1.85;;;12.20;99.90;;;;;;10543613;28;20774;-39
2023/11/03 22:17:10;;;;;;;5.15;2.38;;;13.40;99.90;;;;;;10540141;28;20078;-32
2023/11/03 22:22:12;;;;;;;2.80;1.30;;;14.60;99.90;;;;;;10534450;28;20038;-45
2023/11/03 22:27:15;;;;;;;1.73;1.20;;;12.10;99.90;;;;;;10541893;28;20089;-36
2023/11/03 22:32:17;;;;;;;5.05;2.53;;;13.40;99.90;;;;;;10532592;28;20067;-31
2023/11/03 22:37:18;;;;;;;3.08;2.30;;;13.90;99.90;;;;;;10533583;28;20035;-36
2023/11/03 22:42:21;;;;;;;4.60;2.80;;;12.40;99.90;;;;;;10520356;27;20143;-36
2023/11/03 22:47:23;;;;;;;4.93;2.05;;;13.70;99.90;;;;;;10487488;28;20101;-35
2023/11/03 22:52:25;;;;;;;3.10;2.63;;;12.50;99.90;;;;;;10516669;28;20040;-37
2023/11/03 22:57:28;;;;;;;2.67;2.45;;;14.00;99.90;;;;;;10538367;28;20040;-37
2023/11/03 23:02:31;;;;;;;3.50;2.45;;;13.30;99.90;;;;;;10531655;28;20043;-37
2023/11/03 23:07:33;;;;;;;3.97;2.90;;;14.20;99.90;;;;;;10539301;28;20127;-39
2023/11/03 23:12:36;;;;;;;7.70;4.27;;;14.70;98.30;;;;;;10540739;28;20075;-31
2023/11/03 23:17:39;;;;;;;8.13;4.68;;;14.00;99.90;;;;;;10538039;28;20043;-36
2023/11/03 23:22:42;;;;;;;6.55;5.45;;;13.00;99.90;;;;;;10536087;28;20044;-36
2023/11/03 23:27:45;;;;;;;9.05;3.15;;;14.30;99.90;;;;;;10547040;28;20054;-35
2023/11/03 23:32:47;;;;;;;5.72;3.70;;;14.10;99.90;;;;;;10543532;28;20336;-44
2023/11/03 23:37:49;;;;;;;8.43;3.85;;;13.60;99.90;;;;;;10538809;28;20044;-32
2023/11/03 23:42:52;;;;;;;7.53;5.38;;;14.30;98.00;;;;;;10531466;28;20040;-34
2023/11/03 23:47:54;;;;;;;10.40;5.57;;;14.30;99.90;;;;;;10536392;28;20047;-33
2023/11/03 23:52:58;;;;;;;8.70;5.82;;;13.70;99.90;;;;;;10536712;28;20088;-38
2023/11/03 23:58:01;;;;;;;5.07;2.55;;;14.70;98.40;;;;;;10536236;27;20428;-38
